createdAt,value
2022-09-01T00:00:03.201Z,14.68
2022-09-01T00:02:31.204Z,15.95
2022-09-01T00:04:58.680Z,15.15
2022-09-01T00:07:26.917Z,15.55
2022-09-01T00:09:53.603Z,14.75
2022-09-01T00:12:22.785Z,15.68
2022-09-01T00:14:49.858Z,15.35
2022-09-01T00:17:16.686Z,15.30
2022-09-01T00:19:44.591Z,15.52
2022-09-01T00:22:11.303Z,14.75
2022-09-01T00:24:38.143Z,15.02
2022-09-01T00:27:05.131Z,16.40
2022-09-01T00:29:31.899Z,16.10
2022-09-01T00:31:59.501Z,16.10
2022-09-01T00:34:26.170Z,16.15
2022-09-01T00:36:52.912Z,15.13
2022-09-01T00:39:19.644Z,16.38
2022-09-01T00:41:47.363Z,15.93
2022-09-01T00:44:19.072Z,16.23
2022-09-01T00:46:55.577Z,16.98
2022-09-01T00:49:35.846Z,17.17
2022-09-01T00:52:11.127Z,17.60
2022-09-01T00:54:42.007Z,17.58
2022-09-01T00:57:10.459Z,18.30
2022-09-01T00:59:43.379Z,18.17
2022-09-01T01:02:11.452Z,17.60
2022-09-01T01:04:38.310Z,17.30
2022-09-01T01:07:06.511Z,16.92
2022-09-01T01:09:37.904Z,16.00
2022-09-01T01:12:06.843Z,16.23
2022-09-01T01:14:37.112Z,16.08
2022-09-01T01:17:03.970Z,16.92
2022-09-01T01:20:05.306Z,16.05
2022-09-01T01:23:02.858Z,17.48
2022-09-01T01:25:31.869Z,17.02
2022-09-01T01:28:23.575Z,17.55
2022-09-01T01:30:53.756Z,19.83
2022-09-01T01:33:23.428Z,19.30
2022-09-01T01:35:53.053Z,19.45
2022-09-01T01:38:23.013Z,20.48
2022-09-01T01:40:51.908Z,21.05
2022-09-01T01:43:22.001Z,20.83
2022-09-01T01:45:52.628Z,21.83
2022-09-01T01:48:24.645Z,21.83
2022-09-01T01:50:53.262Z,21.33
2022-09-01T01:53:21.238Z,21.95
2022-09-01T01:55:51.128Z,21.50
2022-09-01T01:58:20.037Z,21.58
2022-09-01T02:00:48.989Z,21.98
2022-09-01T02:03:19.427Z,21.17
2022-09-01T02:05:48.655Z,21.23
2022-09-01T02:08:16.299Z,22.92
2022-09-01T02:10:45.969Z,23.42
2022-09-01T02:13:17.091Z,22.02
2022-09-01T02:15:53.846Z,22.90
2022-09-01T02:18:34.529Z,21.88
2022-09-01T02:21:02.438Z,22.10
2022-09-01T02:23:30.088Z,22.27
2022-09-01T02:26:16.051Z,21.67
2022-09-01T02:28:45.977Z,21.52
2022-09-01T02:31:13.289Z,21.63
2022-09-01T02:33:45.743Z,22.45
2022-09-01T02:36:15.366Z,22.13
2022-09-01T02:38:45.953Z,21.77
2022-09-01T02:41:14.852Z,21.52
2022-09-01T02:43:46.287Z,20.85
2022-09-01T02:46:15.153Z,21.35
2022-09-01T02:48:46.436Z,20.52
2022-09-01T02:51:19.373Z,21.25
2022-09-01T02:53:53.193Z,21.13
2022-09-01T02:56:25.866Z,21.45
2022-09-01T02:58:54.109Z,20.55
2022-09-01T03:01:30.269Z,21.23
2022-09-01T03:04:02.720Z,20.45
2022-09-01T03:06:30.827Z,21.42
2022-09-01T03:09:01.893Z,20.65
2022-09-01T03:11:32.215Z,19.80
2022-09-01T03:13:58.938Z,19.60
2022-09-01T03:16:25.737Z,18.80
2022-09-01T03:18:52.730Z,19.25
2022-09-01T03:21:20.853Z,17.52
2022-09-01T03:23:49.148Z,17.45
2022-09-01T03:26:18.932Z,18.02
2022-09-01T03:28:47.079Z,17.83
2022-09-01T03:31:14.537Z,17.30
2022-09-01T03:33:42.263Z,17.58
2022-09-01T03:36:15.026Z,17.02
2022-09-01T03:38:44.362Z,16.65
2022-09-01T03:41:13.397Z,16.55
2022-09-01T03:43:46.909Z,17.63
2022-09-01T03:46:22.056Z,17.55
2022-09-01T03:49:06.563Z,17.63
2022-09-01T03:51:33.762Z,19.20
2022-09-01T03:54:01.209Z,20.42
2022-09-01T03:56:29.477Z,21.00
2022-09-01T03:58:58.510Z,21.13
2022-09-01T04:01:27.634Z,21.45
2022-09-01T04:03:54.790Z,21.02
2022-09-01T04:06:24.531Z,21.15
2022-09-01T04:09:03.392Z,22.63
2022-09-01T04:11:31.141Z,21.67
2022-09-01T04:13:58.571Z,25.90
2022-09-01T04:16:50.274Z,23.58
2022-09-01T04:19:20.761Z,26.45
2022-09-01T04:21:50.651Z,25.52
2022-09-01T04:24:19.143Z,25.50
2022-09-01T04:26:48.795Z,23.85
2022-09-01T04:29:19.549Z,21.58
2022-09-01T04:31:49.002Z,22.58
2022-09-01T04:34:16.291Z,22.88
2022-09-01T04:36:45.087Z,21.85
2022-09-01T04:39:12.854Z,20.40
2022-09-01T04:41:46.511Z,21.88
2022-09-01T04:44:15.797Z,19.52
2022-09-01T04:46:46.495Z,17.73
2022-09-01T04:49:16.352Z,17.73
2022-09-01T04:51:50.037Z,16.00
2022-09-01T04:54:21.734Z,14.88
2022-09-01T04:56:51.318Z,13.98
2022-09-01T04:59:22.197Z,13.55
2022-09-01T05:01:50.968Z,12.63
2022-09-01T05:04:23.023Z,13.13
2022-09-01T05:06:57.939Z,14.38
2022-09-01T05:09:27.571Z,14.98
2022-09-01T05:11:55.124Z,14.02
2022-09-01T05:14:23.095Z,13.32
2022-09-01T05:16:51.325Z,12.88
2022-09-01T05:19:20.914Z,12.48
2022-09-01T05:21:49.705Z,12.73
2022-09-01T05:24:21.900Z,13.07
2022-09-01T05:26:50.884Z,12.55
2022-09-01T05:29:17.908Z,12.38
2022-09-01T05:31:47.258Z,12.43
2022-09-01T05:34:26.475Z,13.73
2022-09-01T05:36:58.295Z,12.07
2022-09-01T05:39:25.919Z,12.43
2022-09-01T05:41:53.918Z,13.65
2022-09-01T05:44:24.864Z,13.93
2022-09-01T05:46:53.799Z,15.13
2022-09-01T05:49:20.594Z,13.88
2022-09-01T05:51:51.825Z,15.27
2022-09-01T05:54:25.549Z,15.18
2022-09-01T05:56:53.775Z,15.50
2022-09-01T05:59:25.671Z,16.35
2022-09-01T06:01:54.622Z,17.17
2022-09-01T06:04:22.856Z,17.60
2022-09-01T06:07:05.825Z,16.25
2022-09-01T06:09:38.316Z,16.25
2022-09-01T06:12:06.844Z,16.65
2022-09-01T06:14:35.352Z,15.98
2022-09-01T06:17:03.473Z,17.10
2022-09-01T06:19:33.644Z,17.67
2022-09-01T06:22:02.946Z,18.30
2022-09-01T06:24:29.703Z,20.17
2022-09-01T06:26:57.025Z,21.77
2022-09-01T06:29:23.658Z,20.10
2022-09-01T06:31:53.012Z,20.58
2022-09-01T06:34:21.070Z,18.80
2022-09-01T06:36:49.697Z,19.77
2022-09-01T06:39:20.311Z,20.25
2022-09-01T06:41:53.415Z,21.70
2022-09-01T06:44:23.281Z,22.63
2022-09-01T06:46:52.035Z,23.02
2022-09-01T06:49:21.722Z,23.00
2022-09-01T06:51:49.839Z,23.10
2022-09-01T06:54:19.056Z,24.05
2022-09-01T06:56:51.320Z,23.95
2022-09-01T06:59:20.766Z,24.48
2022-09-01T07:01:49.284Z,23.30
2022-09-01T07:04:20.306Z,22.65
2022-09-01T07:09:47.748Z,24.33
2022-09-01T07:12:27.902Z,23.65
2022-09-01T07:17:52.457Z,23.65
2022-09-01T07:20:24.462Z,23.90
2022-09-01T07:23:08.657Z,23.67
2022-09-01T07:26:00.417Z,23.52
2022-09-01T07:28:37.618Z,22.27
2022-09-01T07:34:37.247Z,23.77
2022-09-01T07:42:58.961Z,23.83
2022-09-01T07:45:28.216Z,22.65
2022-09-01T07:47:56.161Z,23.05
2022-09-01T07:50:38.761Z,22.65
2022-09-01T07:53:09.332Z,23.13
2022-09-01T07:55:40.147Z,23.73
2022-09-01T07:58:06.827Z,24.70
2022-09-01T08:00:34.338Z,23.95
2022-09-01T08:03:01.613Z,24.40
2022-09-01T08:05:29.099Z,22.50
2022-09-01T08:07:55.824Z,23.45
2022-09-01T08:10:22.633Z,23.52
2022-09-01T08:12:56.251Z,22.35
2022-09-01T08:15:41.310Z,24.50
2022-09-01T08:18:14.223Z,24.55
2022-09-01T08:20:47.537Z,22.60
2022-09-01T08:23:18.509Z,22.02
2022-09-01T08:25:47.119Z,21.80
2022-09-01T08:28:15.245Z,21.55
2022-09-01T08:30:52.202Z,20.10
2022-09-01T08:33:19.607Z,20.25
2022-09-01T08:35:49.084Z,20.48
2022-09-01T08:38:16.344Z,20.42
2022-09-01T08:40:49.617Z,17.90
2022-09-01T08:43:49.940Z,18.10
2022-09-01T08:46:28.239Z,16.75
2022-09-01T08:51:58.094Z,17.52
2022-09-01T08:54:39.867Z,16.30
2022-09-01T08:57:11.215Z,16.98
2022-09-01T08:59:38.259Z,15.30
2022-09-01T09:02:21.094Z,16.73
2022-09-01T09:04:56.902Z,14.93
2022-09-01T09:07:41.988Z,14.88
2022-09-01T09:10:16.235Z,16.50
2022-09-01T09:13:09.922Z,16.17
2022-09-01T09:15:52.183Z,15.50
2022-09-01T09:19:00.616Z,15.60
2022-09-01T09:21:33.860Z,15.32
2022-09-01T09:24:22.368Z,16.15
2022-09-01T09:26:53.822Z,15.90
2022-09-01T09:29:23.463Z,14.02
2022-09-01T09:32:02.821Z,14.07
2022-09-01T09:34:32.865Z,13.93
2022-09-01T09:37:19.583Z,11.30
2022-09-01T09:40:01.960Z,10.98
2022-09-01T09:42:34.001Z,11.40
2022-09-01T09:45:04.294Z,10.20
2022-09-01T09:47:44.466Z,10.35
2022-09-01T09:50:20.077Z,10.43
2022-09-01T09:52:49.454Z,11.40
2022-09-01T09:55:27.266Z,9.70
2022-09-01T09:58:01.557Z,10.73
2022-09-01T10:00:35.264Z,9.77
2022-09-01T10:03:08.697Z,8.20
2022-09-01T10:05:43.238Z,8.63
2022-09-01T10:08:38.250Z,10.50
2022-09-01T10:11:08.152Z,10.38
2022-09-01T10:13:36.636Z,9.18
2022-09-01T10:16:16.277Z,8.70
2022-09-01T10:18:51.345Z,6.82
2022-09-01T10:21:27.415Z,7.88
2022-09-01T10:23:54.721Z,9.63
2022-09-01T10:26:39.181Z,9.32
2022-09-01T10:29:25.746Z,8.43
2022-09-01T10:32:14.847Z,9.45
2022-09-01T10:34:44.127Z,8.10
2022-09-01T10:37:15.932Z,7.63
2022-09-01T10:40:10.822Z,7.20
2022-09-01T10:42:39.179Z,6.65
2022-09-01T10:45:05.942Z,6.63
2022-09-01T10:47:38.079Z,7.32
2022-09-01T10:50:24.594Z,6.85
2022-09-01T10:53:00.844Z,7.65
2022-09-01T10:55:48.150Z,8.20
2022-09-01T11:01:25.815Z,9.32
2022-09-01T11:04:01.720Z,8.85
2022-09-01T11:10:08.958Z,8.82
2022-09-01T11:12:47.988Z,8.40
2022-09-01T11:15:14.625Z,8.40
2022-09-01T11:17:50.860Z,8.95
2022-09-01T11:20:28.923Z,8.02
2022-09-01T11:23:23.247Z,8.32
2022-09-01T11:26:31.448Z,7.93
2022-09-01T11:28:58.614Z,7.60
2022-09-01T11:31:40.101Z,7.30
2022-09-01T11:34:12.179Z,6.20
2022-09-01T11:36:48.172Z,6.60
2022-09-01T11:39:18.085Z,6.82
2022-09-01T11:41:58.546Z,7.55
2022-09-01T11:44:29.428Z,7.25
2022-09-01T11:47:03.145Z,7.35
2022-09-01T11:49:33.787Z,7.15
2022-09-01T11:52:01.763Z,6.75
2022-09-01T11:54:37.991Z,6.63
2022-09-01T11:57:31.019Z,5.93
2022-09-01T12:00:00.693Z,5.70
2022-09-01T12:02:29.811Z,6.63
2022-09-01T12:04:56.902Z,5.82
2022-09-01T12:07:36.021Z,6.13
2022-09-01T12:10:02.970Z,6.97
2022-09-01T12:12:34.695Z,6.55
2022-09-01T12:15:26.083Z,7.38
2022-09-01T12:17:54.219Z,6.63
2022-09-01T12:20:31.919Z,6.68
2022-09-01T12:23:00.095Z,6.80
2022-09-01T12:25:33.706Z,6.35
2022-09-01T12:28:06.090Z,6.57
2022-09-01T12:30:39.662Z,6.47
2022-09-01T12:33:27.262Z,6.70
2022-09-01T12:36:30.316Z,7.45
2022-09-01T12:39:18.019Z,6.45
2022-09-01T12:41:47.315Z,7.18
2022-09-01T12:44:31.799Z,6.95
2022-09-01T12:47:04.598Z,8.35
2022-09-01T12:49:50.221Z,7.78
2022-09-01T12:52:28.265Z,8.75
2022-09-01T12:54:58.396Z,7.40
2022-09-01T12:57:32.248Z,6.97
2022-09-01T13:00:11.751Z,7.85
2022-09-01T13:02:45.106Z,7.95
2022-09-01T13:05:38.733Z,7.30
2022-09-01T13:08:14.577Z,8.10
2022-09-01T13:10:43.556Z,8.13
2022-09-01T13:13:11.401Z,8.10
2022-09-01T13:15:41.190Z,8.95
2022-09-01T13:18:07.874Z,8.63
2022-09-01T13:20:35.597Z,8.60
2022-09-01T13:23:02.823Z,8.23
2022-09-01T13:25:29.642Z,9.82
2022-09-01T13:27:56.539Z,8.35
2022-09-01T13:30:28.716Z,8.43
2022-09-01T13:35:43.778Z,8.45
2022-09-01T13:38:10.471Z,7.45
2022-09-01T13:40:38.003Z,7.60
2022-09-01T13:43:06.230Z,8.48
2022-09-01T13:45:33.698Z,7.72
2022-09-01T13:49:01.765Z,7.30
2022-09-01T13:53:37.959Z,7.80
2022-09-01T13:56:06.176Z,7.70
2022-09-01T13:58:32.865Z,8.27
2022-09-01T14:01:00.122Z,7.97
2022-09-01T14:03:27.581Z,7.68
2022-09-01T14:05:54.588Z,7.63
2022-09-01T14:08:23.048Z,6.60
2022-09-01T14:10:52.275Z,6.22
2022-09-01T14:13:21.473Z,6.70
2022-09-01T14:15:49.338Z,5.68
2022-09-01T14:18:17.679Z,5.50
2022-09-01T14:20:47.235Z,5.93
2022-09-01T14:23:15.424Z,6.13
2022-09-01T14:25:48.095Z,6.90
2022-09-01T14:28:16.394Z,7.22
2022-09-01T14:30:47.087Z,7.53
2022-09-01T14:33:14.121Z,8.05
2022-09-01T14:35:44.357Z,7.63
2022-09-01T14:38:11.788Z,7.82
2022-09-01T14:40:40.364Z,8.23
2022-09-01T14:43:10.439Z,8.23
2022-09-01T14:45:37.953Z,7.90
2022-09-01T14:48:05.692Z,7.70
2022-09-01T14:50:34.979Z,8.10
2022-09-01T14:53:03.279Z,8.60
2022-09-01T14:55:32.006Z,8.60
2022-09-01T14:58:01.052Z,8.13
2022-09-01T15:00:28.687Z,7.63
2022-09-01T15:02:55.954Z,7.70
2022-09-01T15:05:23.363Z,7.40
2022-09-01T15:07:50.811Z,7.22
2022-09-01T15:10:25.114Z,7.50
2022-09-01T15:12:57.548Z,7.75
2022-09-01T15:15:25.530Z,7.43
2022-09-01T15:17:52.440Z,8.13
2022-09-01T15:20:37.517Z,7.35
2022-09-01T15:23:07.175Z,8.02
2022-09-01T15:25:34.546Z,6.88
2022-09-01T15:28:01.584Z,8.65
2022-09-01T15:30:28.573Z,8.50
2022-09-01T15:32:55.419Z,8.07
2022-09-01T15:35:22.763Z,7.75
2022-09-01T15:37:51.840Z,7.68
2022-09-01T15:40:19.890Z,7.50
2022-09-01T15:42:46.871Z,9.07
2022-09-01T15:45:16.955Z,8.90
2022-09-01T15:47:45.936Z,8.30
2022-09-01T15:50:21.113Z,8.20
2022-09-01T15:52:53.660Z,8.95
2022-09-01T15:55:24.007Z,8.35
2022-09-01T15:57:52.903Z,9.15
2022-09-01T16:00:19.638Z,9.77
2022-09-01T16:02:46.454Z,9.48
2022-09-01T16:05:14.449Z,9.77
2022-09-01T16:07:42.094Z,10.15
2022-09-01T16:10:14.193Z,10.13
2022-09-01T16:12:46.597Z,9.93
2022-09-01T16:15:16.750Z,10.63
2022-09-01T16:17:49.328Z,10.23
2022-09-01T16:20:25.574Z,8.18
2022-09-01T16:22:56.443Z,7.32
2022-09-01T16:25:29.883Z,7.38
2022-09-01T16:27:56.700Z,5.90
2022-09-01T16:30:28.327Z,6.78
2022-09-01T16:32:59.187Z,6.65
2022-09-01T16:35:44.845Z,6.63
2022-09-01T16:38:37.330Z,6.80
2022-09-01T16:41:23.212Z,7.80
2022-09-01T16:44:14.834Z,8.98
2022-09-01T16:47:00.791Z,11.63
2022-09-01T16:49:39.721Z,10.05
2022-09-01T16:52:29.121Z,9.85
2022-09-01T16:55:23.472Z,10.73
2022-09-01T16:58:08.792Z,10.15
2022-09-01T17:01:05.876Z,10.02
2022-09-01T17:03:43.312Z,8.70
2022-09-01T17:06:32.049Z,9.73
2022-09-01T17:09:10.102Z,10.00
2022-09-01T17:11:54.530Z,10.45
2022-09-01T17:14:33.593Z,9.77
2022-09-01T17:17:09.251Z,10.32
2022-09-01T17:19:40.761Z,10.25
2022-09-01T17:22:11.856Z,9.90
2022-09-01T17:25:07.871Z,9.40
2022-09-01T17:28:08.670Z,9.88
2022-09-01T17:30:47.130Z,9.10
2022-09-01T17:33:32.815Z,8.07
2022-09-01T17:36:05.140Z,9.05
2022-09-01T17:38:32.076Z,9.50
2022-09-01T17:41:11.180Z,9.30
2022-09-01T17:44:12.682Z,9.82
2022-09-01T17:46:42.240Z,10.05
2022-09-01T17:49:12.349Z,9.88
2022-09-01T17:51:54.348Z,10.60
2022-09-01T17:54:59.326Z,9.55
2022-09-01T17:57:33.338Z,9.45
2022-09-01T18:00:09.895Z,9.25
2022-09-01T18:03:10.621Z,9.68
2022-09-01T18:05:48.203Z,9.45
2022-09-01T18:08:28.135Z,9.43
2022-09-01T18:10:58.684Z,9.10
2022-09-01T18:13:53.209Z,8.18
2022-09-01T18:16:31.879Z,7.70
2022-09-01T18:19:09.083Z,7.78
2022-09-01T18:21:40.795Z,8.13
2022-09-01T18:24:18.674Z,8.10
2022-09-01T18:26:49.454Z,7.97
2022-09-01T18:29:17.926Z,7.93
2022-09-01T18:32:09.719Z,8.43
2022-09-01T18:34:36.397Z,7.60
2022-09-01T18:37:26.352Z,9.18
2022-09-01T18:40:02.505Z,9.88
2022-09-01T18:42:49.216Z,9.93
2022-09-01T18:45:22.177Z,9.23
2022-09-01T18:48:13.663Z,8.32
2022-09-01T18:51:00.105Z,8.35
2022-09-01T18:53:34.625Z,7.85
2022-09-01T18:56:47.706Z,7.60
2022-09-01T18:59:37.039Z,7.95
2022-09-01T19:02:41.979Z,7.78
2022-09-01T19:05:39.087Z,8.02
2022-09-01T19:08:30.204Z,8.48
2022-09-01T19:11:25.198Z,9.02
2022-09-01T19:14:26.291Z,8.32
2022-09-01T19:17:21.669Z,9.40
2022-09-01T19:19:58.075Z,8.75
2022-09-01T19:22:41.120Z,11.68
2022-09-01T19:25:33.041Z,12.20
2022-09-01T19:28:05.503Z,10.73
2022-09-01T19:30:35.795Z,12.27
2022-09-01T19:33:05.746Z,12.40
2022-09-01T19:35:34.579Z,12.27
2022-09-01T19:38:07.571Z,11.38
2022-09-01T19:40:39.658Z,11.88
2022-09-01T19:43:10.316Z,11.57
2022-09-01T19:46:18.681Z,11.20
2022-09-01T19:48:48.161Z,12.00
2022-09-01T19:51:38.777Z,10.75
2022-09-01T19:54:17.891Z,10.38
2022-09-01T19:56:49.955Z,9.98
2022-09-01T19:59:25.184Z,10.63
2022-09-01T20:02:00.343Z,10.82
2022-09-01T20:04:43.999Z,10.88
2022-09-01T20:07:24.757Z,10.55
2022-09-01T20:10:17.770Z,11.13
2022-09-01T20:12:53.171Z,10.30
2022-09-01T20:15:51.186Z,11.18
2022-09-01T20:18:50.329Z,11.10
2022-09-01T20:21:21.603Z,10.38
2022-09-01T20:23:54.720Z,10.20
2022-09-01T20:26:33.130Z,10.63
2022-09-01T20:29:32.523Z,11.07
2022-09-01T20:32:01.900Z,10.82
2022-09-01T20:34:52.945Z,10.85
2022-09-01T20:37:33.096Z,11.77
2022-09-01T20:40:27.925Z,10.38
2022-09-01T20:43:22.527Z,10.82
2022-09-01T20:45:49.532Z,11.75
2022-09-01T20:48:22.790Z,11.00
2022-09-01T20:51:27.769Z,12.13
2022-09-01T20:53:57.223Z,11.20
2022-09-01T20:56:36.442Z,12.27
2022-09-01T20:59:31.029Z,11.80
2022-09-01T21:02:10.371Z,11.45
2022-09-01T21:05:11.443Z,11.73
2022-09-01T21:08:15.916Z,11.63
2022-09-01T21:11:00.038Z,11.90
2022-09-01T21:13:38.342Z,12.40
2022-09-01T21:16:07.843Z,12.63
2022-09-01T21:18:40.734Z,12.65
2022-09-01T21:21:38.800Z,12.30
2022-09-01T21:24:05.883Z,11.55
2022-09-01T21:26:36.384Z,12.45
2022-09-01T21:29:22.987Z,11.77
2022-09-01T21:31:50.050Z,12.05
2022-09-01T21:34:17.149Z,12.00
2022-09-01T21:36:43.992Z,11.50
2022-09-01T21:39:10.783Z,11.90
2022-09-01T21:41:39.454Z,11.20
2022-09-01T21:44:06.422Z,10.55
2022-09-01T21:46:33.087Z,10.93
2022-09-01T21:48:59.989Z,11.65
2022-09-01T21:51:27.150Z,11.27
2022-09-01T21:53:53.899Z,11.32
2022-09-01T21:56:25.645Z,11.15
2022-09-01T21:58:53.140Z,11.98
2022-09-01T22:01:19.835Z,11.63
2022-09-01T22:03:46.498Z,10.82
2022-09-01T22:06:13.651Z,11.85
2022-09-01T22:08:40.470Z,10.32
2022-09-01T22:11:10.195Z,10.20
2022-09-01T22:13:37.478Z,9.52
2022-09-01T22:16:05.019Z,9.05
2022-09-01T22:18:31.714Z,9.50
2022-09-01T22:21:08.295Z,9.10
2022-09-01T22:23:36.102Z,9.30
2022-09-01T22:26:04.157Z,9.02
2022-09-01T22:28:31.540Z,8.60
2022-09-01T22:30:58.556Z,7.68
2022-09-01T22:33:25.526Z,8.57
2022-09-01T22:35:54.295Z,8.70
2022-09-01T22:38:22.402Z,8.25
2022-09-01T22:40:55.766Z,8.02
2022-09-01T22:43:24.730Z,8.57
2022-09-01T22:45:52.450Z,8.85
2022-09-01T22:48:21.552Z,8.88
2022-09-01T22:50:49.155Z,9.30
2022-09-01T22:53:18.016Z,9.20
2022-09-01T22:55:46.887Z,8.90
2022-09-01T22:58:15.330Z,9.20
2022-09-01T23:00:48.167Z,9.98
2022-09-01T23:03:15.752Z,9.77
2022-09-01T23:05:43.865Z,10.43
2022-09-01T23:08:10.880Z,10.55
2022-09-01T23:10:37.657Z,10.20
2022-09-01T23:13:04.606Z,10.27
2022-09-01T23:15:31.597Z,10.65
2022-09-01T23:17:58.299Z,10.95
2022-09-01T23:20:25.339Z,10.63
2022-09-01T23:22:52.070Z,10.52
2022-09-01T23:25:19.052Z,11.27
2022-09-01T23:27:46.234Z,11.40
2022-09-01T23:30:14.413Z,12.00
2022-09-01T23:32:41.155Z,11.52
2022-09-01T23:35:08.713Z,11.55
2022-09-01T23:37:35.502Z,11.88
2022-09-01T23:40:02.961Z,11.35
2022-09-01T23:42:29.666Z,11.55
2022-09-01T23:44:56.377Z,10.90
2022-09-01T23:47:23.096Z,13.02
2022-09-01T23:49:49.757Z,12.18
2022-09-01T23:52:16.445Z,12.02
2022-09-01T23:54:43.494Z,11.90
2022-09-01T23:57:10.662Z,11.90
2022-09-01T23:59:37.285Z,12.50
